Time;durP1;ratioP1;P1;durP2;ratioP2;P2;SDS_P1;SDS_P2;PMS_P1;PMS_P2;Temp;Humidity;BMP_temperature;BMP_pressure;BME280_temperature;BME280_humidity;BME280_pressure;Samples;Min_cycle;Max_cycle;Signal;HPM_P1;HPM_P2
2024/02/05 00:01:24;;;;;;;7.20;3.40;;;8.30;99.90;;;;;;5077180;28;20437;-66
2024/02/05 00:03:52;;;;;;;10.83;7.17;;;8.30;99.90;;;;;;5074010;28;20429;-67
2024/02/05 00:06:25;;;;;;;6.13;3.30;;;8.30;99.90;;;;;;5076603;28;20503;-67
2024/02/05 00:08:52;;;;;;;17.60;8.93;;;8.30;99.90;;;;;;5073464;28;20430;-67
2024/02/05 00:11:58;;;;;;;9.80;5.47;;;8.30;99.90;;;;;;5073296;28;20426;-67
2024/02/05 00:17:40;;;;;;;4.20;3.40;;;8.40;99.90;;;;;;5015933;28;20431;-66
2024/02/05 00:20:12;;;;;;;3.57;2.70;;;8.40;99.90;;;;;;5016529;28;20466;-68
2024/02/05 00:22:53;;;;;;;2.50;1.73;;;8.40;99.90;;;;;;5015584;28;20582;-68
2024/02/05 00:25:29;;;;;;;2.83;2.27;;;8.40;99.90;;;;;;5014676;28;20522;-66
2024/02/05 00:28:00;;;;;;;2.47;1.70;;;8.50;99.90;;;;;;5014145;28;20486;-66
2024/02/05 00:30:28;;;;;;;2.20;1.60;;;8.60;99.90;;;;;;5014072;28;20443;-67
2024/02/05 00:32:58;;;;;;;2.47;1.90;;;8.70;99.90;;;;;;5013927;28;20487;-67
2024/02/05 00:35:27;;;;;;;1.67;1.40;;;8.70;99.90;;;;;;5013978;28;20454;-68
2024/02/05 00:38:00;;;;;;;2.60;1.97;;;8.80;99.90;;;;;;5014094;28;20785;-67
2024/02/05 00:40:28;;;;;;;1.73;1.10;;;8.90;99.90;;;;;;5015041;28;20421;-67
2024/02/05 00:42:55;;;;;;;1.67;1.33;;;9.00;99.90;;;;;;5075331;28;20902;-65
2024/02/05 00:45:25;;;;;;;2.03;1.27;;;9.00;99.90;;;;;;5075016;28;20993;-66
2024/02/05 00:47:52;;;;;;;1.70;1.33;;;9.10;99.90;;;;;;5074831;28;21007;-67
2024/02/05 00:50:19;;;;;;;1.37;1.10;;;9.20;99.90;;;;;;5074741;28;20427;-66
2024/02/05 00:52:46;;;;;;;1.70;1.07;;;9.30;99.90;;;;;;5074669;28;20518;-67
2024/02/05 00:55:13;;;;;;;1.80;1.50;;;9.30;99.90;;;;;;5075000;28;20957;-66
2024/02/05 00:57:40;;;;;;;1.10;1.00;;;9.40;99.90;;;;;;5072441;28;20433;-66
2024/02/05 01:00:09;;;;;;;1.70;1.40;;;9.40;99.90;;;;;;5054874;28;20430;-66
2024/02/05 01:02:38;;;;;;;1.57;0.87;;;9.40;99.90;;;;;;5054526;28;20466;-67
2024/02/05 01:05:06;;;;;;;1.20;0.90;;;9.50;99.90;;;;;;5054630;28;20470;-66
2024/02/05 01:07:33;;;;;;;1.43;1.10;;;9.50;99.90;;;;;;5054249;28;20428;-66
2024/02/05 01:10:00;;;;;;;0.90;0.70;;;9.60;99.90;;;;;;5054751;28;20467;-66
2024/02/05 01:12:27;;;;;;;1.00;0.70;;;9.60;99.90;;;;;;5054241;28;20572;-65
2024/02/05 01:14:54;;;;;;;0.90;0.70;;;9.70;99.90;;;;;;5054319;28;20493;-66
2024/02/05 01:17:22;;;;;;;1.70;0.70;;;9.70;99.90;;;;;;5054663;28;20505;-66
2024/02/05 01:19:51;;;;;;;0.90;0.80;;;9.80;99.90;;;;;;5053759;28;20499;-65
2024/02/05 01:22:18;;;;;;;1.00;0.70;;;9.80;99.90;;;;;;5055026;28;20465;-64
2024/02/05 01:24:45;;;;;;;1.00;0.70;;;9.80;99.90;;;;;;5054406;28;20502;-65
2024/02/05 01:27:12;;;;;;;0.80;0.60;;;9.80;99.90;;;;;;5052914;28;20485;-65
2024/02/05 01:29:41;;;;;;;1.40;0.90;;;9.90;99.90;;;;;;5053865;28;20442;-66
2024/02/05 01:32:10;;;;;;;1.10;0.80;;;9.90;99.90;;;;;;5035856;28;21047;-65
2024/02/05 01:34:37;;;;;;;3.30;0.93;;;9.90;99.90;;;;;;5054064;28;20442;-65
2024/02/05 01:37:06;;;;;;;0.90;0.60;;;10.00;99.90;;;;;;5054283;28;20430;-65
2024/02/05 01:39:33;;;;;;;1.10;0.90;;;10.00;99.90;;;;;;5054512;28;20863;-65
2024/02/05 01:42:00;;;;;;;1.77;1.00;;;10.00;99.90;;;;;;5055881;28;20498;-66
2024/02/05 01:44:27;;;;;;;1.33;0.80;;;10.00;99.90;;;;;;5069275;28;20562;-66
2024/02/05 01:46:54;;;;;;;1.10;0.90;;;10.10;99.90;;;;;;5053833;28;20435;-66
2024/02/05 01:49:22;;;;;;;1.33;0.97;;;10.10;99.90;;;;;;5053508;28;20450;-66
2024/02/05 01:51:55;;;;;;;1.37;0.97;;;10.10;99.90;;;;;;5053681;28;20483;-69
2024/02/05 01:54:25;;;;;;;1.20;0.80;;;10.10;99.90;;;;;;5062748;28;20524;-66
2024/02/05 01:56:55;;;;;;;1.10;1.00;;;10.10;99.90;;;;;;5073636;28;20801;-65
2024/02/05 01:59:22;;;;;;;1.90;1.07;;;10.20;99.90;;;;;;5073554;28;20441;-66
2024/02/05 02:01:49;;;;;;;1.33;0.93;;;10.10;99.90;;;;;;5062151;28;20538;-66
2024/02/05 02:04:16;;;;;;;1.20;0.90;;;10.20;99.90;;;;;;5053367;28;20498;-66
2024/02/05 02:06:43;;;;;;;1.73;1.07;;;10.20;99.90;;;;;;5053005;28;20514;-67
2024/02/05 02:09:13;;;;;;;1.80;1.27;;;10.20;99.90;;;;;;5053417;28;20510;-65
2024/02/05 02:11:42;;;;;;;1.00;0.80;;;10.20;99.90;;;;;;5053414;28;20629;-66
2024/02/05 02:14:09;;;;;;;1.20;1.00;;;10.20;99.90;;;;;;5053257;28;20528;-68
2024/02/05 02:16:39;;;;;;;1.40;1.00;;;10.20;99.90;;;;;;5053338;28;20470;-66
2024/02/05 02:19:18;;;;;;;1.50;1.20;;;10.20;99.90;;;;;;5053010;28;20474;-66
2024/02/05 02:21:51;;;;;;;2.93;2.03;;;10.20;99.90;;;;;;5053415;28;20968;-66
2024/02/05 02:24:19;;;;;;;1.27;1.00;;;10.30;99.90;;;;;;5053759;28;20475;-67
2024/02/05 02:26:46;;;;;;;1.40;0.93;;;10.20;99.90;;;;;;5054582;28;20469;-66
2024/02/05 02:29:13;;;;;;;1.90;0.83;;;10.20;99.90;;;;;;5053207;28;20457;-65
2024/02/05 02:31:41;;;;;;;1.30;1.10;;;10.20;99.90;;;;;;5053093;28;20990;-66
2024/02/05 02:34:16;;;;;;;1.00;0.90;;;10.20;99.90;;;;;;5052529;28;20502;-66
2024/02/05 02:36:52;;;;;;;1.20;1.10;;;10.20;99.90;;;;;;5053345;28;20495;-67
2024/02/05 02:39:25;;;;;;;1.57;1.10;;;10.20;99.90;;;;;;5052782;28;20478;-66
2024/02/05 02:41:55;;;;;;;1.10;0.90;;;10.30;99.90;;;;;;5053224;28;20825;-66
2024/02/05 02:44:25;;;;;;;1.83;1.30;;;10.30;99.90;;;;;;5052611;28;20481;-66
2024/02/05 02:46:56;;;;;;;1.87;1.20;;;10.30;99.90;;;;;;5052984;28;20935;-67
2024/02/05 02:49:23;;;;;;;1.63;1.10;;;10.30;99.90;;;;;;5052235;28;20960;-67
2024/02/05 02:51:50;;;;;;;1.13;0.90;;;10.30;99.90;;;;;;5052716;28;20497;-67
2024/02/05 02:54:17;;;;;;;1.40;1.00;;;10.30;99.90;;;;;;5053086;28;20568;-67
2024/02/05 02:56:45;;;;;;;2.13;0.80;;;10.30;99.90;;;;;;5052809;28;20466;-67
2024/02/05 02:59:12;;;;;;;1.60;1.30;;;10.30;99.90;;;;;;5062923;28;20481;-67
2024/02/05 03:01:39;;;;;;;1.77;0.80;;;10.30;99.90;;;;;;5072667;28;20883;-67
2024/02/05 03:04:06;;;;;;;1.10;0.90;;;10.30;99.90;;;;;;5060046;28;20482;-67
2024/02/05 03:06:33;;;;;;;1.20;1.00;;;10.30;99.90;;;;;;5063867;28;20837;-66
2024/02/05 03:09:00;;;;;;;1.00;0.87;;;10.30;99.90;;;;;;5072563;28;20485;-66
2024/02/05 03:11:28;;;;;;;1.40;0.90;;;10.30;99.90;;;;;;5072816;28;20654;-66
2024/02/05 03:13:57;;;;;;;1.07;0.70;;;10.30;99.90;;;;;;5065015;28;20480;-66
2024/02/05 03:16:24;;;;;;;0.90;0.70;;;10.30;99.90;;;;;;5051479;28;20488;-67
2024/02/05 03:18:51;;;;;;;1.97;0.90;;;10.30;99.90;;;;;;5064904;28;20470;-67
2024/02/05 03:21:18;;;;;;;1.00;0.80;;;10.30;99.90;;;;;;5073939;28;20469;-67
2024/02/05 03:23:45;;;;;;;1.37;0.90;;;10.30;99.90;;;;;;5078395;28;20457;-67
2024/02/05 03:26:13;;;;;;;0.90;0.67;;;10.40;99.90;;;;;;5066151;28;20447;-67
2024/02/05 03:28:40;;;;;;;1.53;0.90;;;10.30;99.90;;;;;;5059994;28;20439;-66
2024/02/05 03:31:09;;;;;;;1.00;0.70;;;10.30;99.90;;;;;;5060329;28;20435;-66
2024/02/05 03:33:36;;;;;;;0.93;0.80;;;10.30;99.90;;;;;;5061748;28;20522;-66
2024/02/05 03:36:04;;;;;;;1.23;0.93;;;10.30;99.90;;;;;;5056952;28;20684;-66
2024/02/05 03:38:31;;;;;;;2.00;0.77;;;10.40;99.90;;;;;;5052057;28;20479;-65
2024/02/05 03:40:59;;;;;;;1.63;0.87;;;10.30;99.90;;;;;;5052082;28;20464;-66
2024/02/05 03:43:26;;;;;;;1.57;1.00;;;10.30;99.90;;;;;;5052431;28;20460;-66
2024/02/05 03:45:53;;;;;;;1.17;0.80;;;10.30;99.90;;;;;;5052528;28;20485;-66
2024/02/05 03:48:22;;;;;;;1.10;0.83;;;10.30;99.90;;;;;;5051463;28;20470;-66
2024/02/05 03:50:49;;;;;;;1.30;0.70;;;10.20;99.90;;;;;;5054323;28;20882;-66
2024/02/05 03:53:16;;;;;;;1.37;0.90;;;10.30;99.90;;;;;;5056033;28;20490;-66
2024/02/05 03:55:43;;;;;;;1.10;1.00;;;10.30;99.90;;;;;;5056010;28;20459;-65
2024/02/05 03:58:10;;;;;;;0.90;0.80;;;10.30;99.90;;;;;;5055914;28;20500;-66
2024/02/05 04:00:37;;;;;;;1.03;0.70;;;10.30;99.90;;;;;;5055704;28;20573;-66
2024/02/05 04:03:06;;;;;;;1.30;0.80;;;10.30;99.90;;;;;;5055860;28;20520;-66
2024/02/05 04:05:34;;;;;;;1.57;0.80;;;10.30;99.90;;;;;;5055668;28;20787;-66
2024/02/05 04:08:01;;;;;;;1.00;0.80;;;10.30;99.90;;;;;;5056057;28;20435;-66
2024/02/05 04:10:52;;;;;;;0.80;0.60;;;10.30;99.90;;;;;;5056080;28;20430;-66
2024/02/05 04:13:19;;;;;;;1.13;0.77;;;10.30;99.90;;;;;;5055871;28;20560;-64
2024/02/05 04:15:47;;;;;;;0.80;0.60;;;10.30;99.90;;;;;;5055757;28;20945;-67
2024/02/05 04:18:14;;;;;;;1.03;0.87;;;10.30;99.90;;;;;;5055288;28;20506;-66
2024/02/05 04:20:42;;;;;;;0.90;0.70;;;10.30;99.90;;;;;;5055308;28;20852;-67
2024/02/05 04:23:11;;;;;;;0.90;0.70;;;10.30;99.90;;;;;;5055311;28;20521;-66
2024/02/05 04:25:38;;;;;;;1.90;0.70;;;10.30;99.90;;;;;;5055303;28;20518;-66
2024/02/05 04:28:06;;;;;;;0.80;0.70;;;10.30;99.90;;;;;;5055133;28;20470;-67
2024/02/05 04:30:41;;;;;;;3.83;0.90;;;10.30;99.90;;;;;;5054788;28;20506;-66
2024/02/05 04:33:07;;;;;;;0.80;0.60;;;10.30;99.90;;;;;;5054650;28;20561;-66
2024/02/05 04:35:35;;;;;;;1.00;0.67;;;10.30;99.90;;;;;;5055313;28;20874;-66
2024/02/05 04:38:03;;;;;;;1.10;0.70;;;10.30;99.90;;;;;;5054973;28;20466;-66
2024/02/05 04:40:30;;;;;;;1.60;0.80;;;10.30;99.90;;;;;;5055192;28;20439;-66
2024/02/05 04:42:57;;;;;;;0.90;0.70;;;10.30;99.90;;;;;;5055444;28;20502;-65
2024/02/05 04:45:24;;;;;;;0.80;0.67;;;10.30;99.90;;;;;;5055159;28;20445;-66
2024/02/05 04:47:51;;;;;;;1.00;0.80;;;10.20;99.90;;;;;;5055459;28;20482;-66
2024/02/05 04:50:18;;;;;;;1.07;0.90;;;10.20;99.90;;;;;;5055741;28;20774;-67
2024/02/05 04:52:47;;;;;;;2.77;0.90;;;10.20;99.90;;;;;;5055000;28;20504;-66
2024/02/05 04:55:17;;;;;;;2.97;1.00;;;10.20;99.90;;;;;;5054667;28;20554;-65
2024/02/05 04:57:48;;;;;;;0.80;0.60;;;10.30;99.90;;;;;;5055170;28;20486;-66
2024/02/05 05:00:16;;;;;;;1.30;0.77;;;10.20;99.90;;;;;;5054646;28;20495;-65
2024/02/05 05:02:44;;;;;;;1.07;0.80;;;10.30;99.90;;;;;;5054123;28;20473;-67
2024/02/05 05:05:12;;;;;;;1.83;0.90;;;10.30;99.90;;;;;;5049864;28;20502;-67
2024/02/05 05:07:40;;;;;;;2.07;0.90;;;10.30;99.90;;;;;;5051831;28;20494;-66
2024/02/05 05:10:08;;;;;;;3.73;1.00;;;10.20;99.90;;;;;;5054482;28;20454;-67
2024/02/05 05:12:36;;;;;;;0.90;0.70;;;10.20;99.90;;;;;;5046499;28;20529;-66
2024/02/05 05:15:03;;;;;;;1.37;0.90;;;10.20;99.90;;;;;;5044830;28;20552;-66
2024/02/05 05:17:31;;;;;;;1.53;1.00;;;10.30;99.90;;;;;;5037292;28;20633;-67
2024/02/05 05:19:58;;;;;;;0.90;0.80;;;10.30;99.90;;;;;;5042058;28;20510;-67
2024/02/05 05:22:25;;;;;;;1.77;1.00;;;10.30;99.90;;;;;;5043433;28;20457;-66
2024/02/05 05:24:52;;;;;;;1.50;1.00;;;10.20;99.90;;;;;;5043575;28;20483;-66
2024/02/05 05:27:19;;;;;;;2.60;0.90;;;10.20;99.90;;;;;;5045181;28;20867;-67
2024/02/05 05:29:48;;;;;;;3.63;0.90;;;10.20;99.90;;;;;;5045450;28;20448;-66
2024/02/05 05:32:15;;;;;;;3.60;1.73;;;10.30;99.90;;;;;;5045419;28;20502;-67
2024/02/05 05:34:42;;;;;;;1.20;0.83;;;10.20;99.90;;;;;;5039956;28;20507;-67
2024/02/05 05:37:10;;;;;;;1.50;1.10;;;10.30;99.90;;;;;;5042195;28;20440;-67
2024/02/05 05:39:36;;;;;;;7.43;1.20;;;10.20;99.90;;;;;;5043994;28;20432;-67
2024/02/05 05:42:04;;;;;;;2.57;1.30;;;10.20;99.90;;;;;;5042711;28;20485;-67
2024/02/05 05:44:32;;;;;;;2.07;0.70;;;10.30;99.90;;;;;;5042165;28;20871;-66
2024/02/05 05:47:01;;;;;;;0.90;0.70;;;10.20;99.90;;;;;;5045042;28;20854;-66
2024/02/05 05:49:30;;;;;;;3.63;0.63;;;10.20;99.90;;;;;;5050369;28;20961;-67
2024/02/05 05:51:57;;;;;;;1.57;0.83;;;10.20;99.90;;;;;;5043733;28;20542;-67
2024/02/05 05:54:24;;;;;;;1.20;0.70;;;10.20;99.90;;;;;;5041646;28;20552;-67
2024/02/05 05:56:51;;;;;;;0.90;0.63;;;10.20;99.90;;;;;;5042797;28;20541;-68
2024/02/05 05:59:19;;;;;;;0.80;0.67;;;10.30;99.90;;;;;;5042262;28;20494;-67
2024/02/05 06:01:46;;;;;;;1.67;0.77;;;10.20;99.90;;;;;;5044573;28;20636;-67
2024/02/05 06:04:15;;;;;;;1.07;0.77;;;10.20;99.90;;;;;;5041495;28;20440;-67
2024/02/05 06:06:42;;;;;;;0.90;0.60;;;10.20;99.90;;;;;;5044587;28;20434;-67
2024/02/05 06:09:09;;;;;;;0.80;0.50;;;10.20;99.90;;;;;;5050364;28;20877;-68
2024/02/05 06:11:36;;;;;;;1.00;0.80;;;10.20;99.90;;;;;;5052907;28;20477;-66
2024/02/05 06:14:05;;;;;;;0.97;0.70;;;10.20;99.90;;;;;;5046990;28;20464;-67
2024/02/05 06:16:33;;;;;;;1.50;0.90;;;10.20;99.90;;;;;;5042040;28;20466;-67
2024/02/05 06:19:02;;;;;;;1.00;0.70;;;10.20;99.90;;;;;;5043340;28;20492;-68
2024/02/05 06:21:30;;;;;;;1.80;0.93;;;10.20;99.90;;;;;;5044947;28;20543;-68
2024/02/05 06:23:57;;;;;;;3.97;0.80;;;10.10;99.90;;;;;;5043671;28;20975;-69
2024/02/05 06:26:26;;;;;;;1.93;1.03;;;10.20;99.90;;;;;;5043461;28;20518;-66
2024/02/05 06:28:53;;;;;;;1.70;0.80;;;10.20;99.90;;;;;;5033940;28;20936;-66
2024/02/05 06:31:20;;;;;;;2.17;0.90;;;10.20;99.90;;;;;;5033113;28;20471;-64
2024/02/05 06:33:48;;;;;;;1.53;1.07;;;10.20;99.90;;;;;;5033317;28;20432;-65
2024/02/05 06:36:15;;;;;;;1.30;1.20;;;10.20;99.90;;;;;;5033211;28;20428;-67
2024/02/05 06:38:43;;;;;;;1.13;0.90;;;10.20;99.90;;;;;;5033129;28;20851;-65
2024/02/05 06:41:10;;;;;;;1.10;0.90;;;10.20;99.90;;;;;;5038590;28;20835;-65
2024/02/05 06:43:39;;;;;;;0.90;0.80;;;10.20;99.90;;;;;;5046004;28;20482;-67
2024/02/05 06:46:08;;;;;;;1.77;0.83;;;10.20;99.90;;;;;;5045893;28;20494;-66
2024/02/05 06:48:36;;;;;;;1.10;0.70;;;10.20;99.90;;;;;;5043572;28;20519;-67
2024/02/05 06:51:16;;;;;;;1.10;0.87;;;10.10;99.90;;;;;;5041035;28;20836;-65
2024/02/05 06:53:45;;;;;;;1.00;0.70;;;10.10;99.90;;;;;;5041135;28;20431;-66
2024/02/05 06:56:13;;;;;;;1.03;0.83;;;10.10;99.90;;;;;;5044155;28;20469;-65
2024/02/05 06:58:41;;;;;;;1.07;0.80;;;10.20;99.90;;;;;;5036331;28;20876;-65
2024/02/05 07:01:10;;;;;;;1.00;0.80;;;10.20;99.90;;;;;;5040367;28;20431;-67
2024/02/05 07:03:37;;;;;;;1.10;0.80;;;10.20;99.90;;;;;;5045217;28;20460;-66
2024/02/05 07:06:04;;;;;;;1.30;0.80;;;10.20;99.90;;;;;;5054173;28;20438;-65
2024/02/05 07:08:31;;;;;;;1.00;0.70;;;10.20;99.90;;;;;;5058732;28;20443;-64
2024/02/05 07:11:02;;;;;;;1.20;0.80;;;10.20;99.90;;;;;;5061352;28;20611;-66
2024/02/05 07:13:29;;;;;;;1.60;0.70;;;10.20;99.90;;;;;;5054442;28;20497;-63
2024/02/05 07:15:57;;;;;;;0.80;0.60;;;10.20;99.90;;;;;;5055949;28;20502;-64
2024/02/05 07:18:31;;;;;;;1.33;0.83;;;10.20;99.90;;;;;;5056783;28;20502;-64
2024/02/05 07:21:01;;;;;;;0.90;0.60;;;10.20;99.90;;;;;;5057066;28;20478;-64
2024/02/05 07:23:35;;;;;;;2.97;0.90;;;10.20;99.90;;;;;;5050632;28;20549;-64
2024/02/05 07:26:05;;;;;;;1.00;0.70;;;10.20;99.90;;;;;;5048019;28;20465;-64
2024/02/05 07:28:33;;;;;;;1.40;0.90;;;10.30;99.90;;;;;;5060431;28;20438;-63
2024/02/05 07:31:00;;;;;;;1.10;0.97;;;10.20;99.90;;;;;;5051873;28;20463;-64
2024/02/05 07:33:27;;;;;;;1.40;1.23;;;10.20;99.90;;;;;;5058781;28;20467;-65
2024/02/05 07:35:54;;;;;;;1.10;1.00;;;10.30;99.90;;;;;;5051610;28;20490;-65
2024/02/05 07:38:27;;;;;;;1.10;0.70;;;10.30;99.90;;;;;;5041217;28;20432;-67
2024/02/05 07:40:54;;;;;;;5.97;1.53;;;10.30;99.90;;;;;;5034422;28;20464;-67
2024/02/05 07:43:23;;;;;;;1.30;0.90;;;10.30;99.90;;;;;;5050661;28;20471;-67
2024/02/05 07:45:49;;;;;;;1.53;1.00;;;10.20;99.90;;;;;;5053139;28;20426;-67
2024/02/05 07:48:17;;;;;;;3.07;1.80;;;10.20;99.90;;;;;;5049368;28;20448;-67
2024/02/05 07:50:44;;;;;;;1.40;1.00;;;10.20;99.90;;;;;;5047509;28;20459;-67
2024/02/05 07:53:11;;;;;;;2.77;1.20;;;10.30;99.90;;;;;;5053480;28;20885;-66
2024/02/05 07:55:39;;;;;;;3.30;1.30;;;10.30;99.90;;;;;;5053454;28;20505;-66
2024/02/05 07:58:06;;;;;;;4.07;1.70;;;10.30;99.90;;;;;;5048106;28;20444;-66
2024/02/05 08:00:36;;;;;;;1.43;1.20;;;10.30;99.90;;;;;;5045110;28;20750;-66
2024/02/05 08:03:03;;;;;;;2.10;1.10;;;10.30;99.90;;;;;;5046246;28;20464;-66
2024/02/05 08:05:37;;;;;;;3.43;1.20;;;10.30;99.90;;;;;;5061792;28;20456;-66
2024/02/05 08:08:04;;;;;;;3.10;1.70;;;10.30;99.90;;;;;;5048008;28;20507;-68
2024/02/05 08:10:34;;;;;;;1.60;1.40;;;10.20;99.90;;;;;;5057851;28;20481;-66
2024/02/05 08:13:01;;;;;;;5.23;1.30;;;10.30;99.90;;;;;;5058609;28;20472;-67
2024/02/05 08:15:48;;;;;;;1.90;0.93;;;10.20;99.90;;;;;;5048448;28;20528;-63
2024/02/05 08:18:15;;;;;;;4.47;1.77;;;10.20;99.90;;;;;;5040228;28;20986;-68
2024/02/05 08:20:43;;;;;;;2.70;1.87;;;10.20;99.90;;;;;;5045305;28;20447;-67
2024/02/05 08:23:10;;;;;;;3.00;1.30;;;10.20;99.90;;;;;;5038176;28;20517;-68
2024/02/05 08:25:37;;;;;;;3.70;2.43;;;10.20;99.90;;;;;;5043070;28;20460;-67
2024/02/05 08:28:05;;;;;;;5.27;1.60;;;10.20;99.90;;;;;;5042808;28;20747;-65
2024/02/05 08:30:52;;;;;;;3.90;1.47;;;10.20;99.90;;;;;;5035629;28;20978;-67
2024/02/05 08:33:19;;;;;;;3.20;1.50;;;10.20;99.90;;;;;;5035967;28;20465;-67
2024/02/05 08:35:46;;;;;;;9.43;3.00;;;10.20;99.90;;;;;;5045626;28;20843;-68
2024/02/05 08:38:13;;;;;;;2.30;1.90;;;10.20;99.90;;;;;;5053767;28;20422;-67
2024/02/05 08:40:48;;;;;;;3.50;1.60;;;10.20;99.90;;;;;;5054608;28;20430;-69
2024/02/05 08:43:17;;;;;;;3.17;1.37;;;10.30;99.90;;;;;;5043548;28;20459;-70
2024/02/05 08:46:27;;;;;;;4.67;2.07;;;10.30;99.90;;;;;;5043482;28;20427;-67
2024/02/05 08:48:56;;;;;;;4.40;2.07;;;10.30;99.90;;;;;;5041098;28;20812;-66
2024/02/05 08:51:37;;;;;;;3.40;1.83;;;10.30;99.90;;;;;;5055054;28;20528;-67
2024/02/05 08:54:04;;;;;;;3.90;1.70;;;10.30;99.90;;;;;;5056962;28;20497;-66
2024/02/05 08:56:31;;;;;;;1.83;1.67;;;10.20;99.90;;;;;;5042088;28;20864;-66
2024/02/05 08:58:58;;;;;;;1.87;1.60;;;10.20;99.90;;;;;;5048946;28;20467;-65
2024/02/05 09:01:25;;;;;;;5.60;2.13;;;10.20;99.90;;;;;;5053786;28;20912;-66
2024/02/05 09:03:52;;;;;;;8.37;2.03;;;10.20;99.90;;;;;;5045930;28;20471;-67
2024/02/05 09:06:33;;;;;;;4.20;2.37;;;10.20;99.90;;;;;;5040509;28;20518;-67
2024/02/05 09:09:00;;;;;;;6.30;2.30;;;10.20;99.90;;;;;;5055392;28;20474;-67
2024/02/05 09:11:31;;;;;;;3.90;2.53;;;10.20;99.90;;;;;;5055263;28;20452;-67
2024/02/05 09:14:00;;;;;;;10.50;2.00;;;10.20;99.90;;;;;;5039971;28;20480;-67
2024/02/05 09:16:27;;;;;;;2.53;1.93;;;10.30;99.90;;;;;;5053368;28;20960;-67
2024/02/05 09:19:07;;;;;;;5.20;2.70;;;10.30;99.90;;;;;;5055204;28;20498;-67
2024/02/05 09:21:35;;;;;;;1.93;1.33;;;10.20;99.90;;;;;;5056212;28;20470;-65
2024/02/05 09:24:04;;;;;;;3.50;2.37;;;10.30;99.90;;;;;;5057104;28;20502;-67
2024/02/05 09:26:31;;;;;;;3.87;2.23;;;10.30;99.90;;;;;;5055529;28;20421;-67
2024/02/05 09:29:05;;;;;;;6.30;3.17;;;10.20;99.90;;;;;;5055721;28;20530;-67
2024/02/05 09:31:32;;;;;;;3.30;2.07;;;10.20;99.90;;;;;;5042411;28;20464;-66
2024/02/05 09:33:59;;;;;;;7.90;2.63;;;10.20;99.90;;;;;;5053505;28;20436;-64
2024/02/05 09:36:27;;;;;;;6.23;3.03;;;10.10;99.90;;;;;;5036736;28;20476;-67
2024/02/05 09:38:55;;;;;;;6.27;3.30;;;10.10;99.90;;;;;;5047971;28;20443;-67
2024/02/05 09:41:35;;;;;;;10.60;3.53;;;10.10;99.90;;;;;;5056878;28;20471;-67
2024/02/05 09:44:16;;;;;;;7.13;2.63;;;10.10;99.90;;;;;;5055100;28;20515;-68
2024/02/05 09:46:47;;;;;;;8.73;2.27;;;10.10;99.90;;;;;;5064048;28;20446;-67
2024/02/05 09:49:14;;;;;;;6.90;3.30;;;10.20;99.90;;;;;;5061649;28;20455;-67
2024/02/05 09:51:42;;;;;;;8.37;2.33;;;10.20;99.90;;;;;;5072562;28;20465;-67
2024/02/05 09:54:14;;;;;;;2.93;2.47;;;10.20;99.90;;;;;;5065484;28;20466;-67
2024/02/05 09:56:43;;;;;;;9.27;2.70;;;10.10;99.90;;;;;;5074662;28;20479;-66
2024/02/05 09:59:29;;;;;;;8.63;3.43;;;10.10;99.90;;;;;;5060164;28;20428;-67
2024/02/05 10:01:57;;;;;;;6.47;3.10;;;10.10;99.90;;;;;;5034302;28;20461;-68
2024/02/05 10:04:25;;;;;;;4.70;4.23;;;10.10;99.90;;;;;;5034815;28;20429;-66
2024/02/05 10:06:53;;;;;;;11.50;3.30;;;10.10;99.90;;;;;;5034012;28;20461;-67
2024/02/05 10:09:28;;;;;;;6.53;2.30;;;10.10;99.90;;;;;;5050519;28;20788;-66
2024/02/05 10:11:56;;;;;;;6.73;2.13;;;10.10;99.90;;;;;;5043918;28;20482;-68
2024/02/05 10:14:26;;;;;;;6.73;2.40;;;10.20;99.90;;;;;;5051917;28;20785;-69
2024/02/05 10:16:53;;;;;;;7.57;3.63;;;10.20;99.90;;;;;;5042771;28;20500;-67
2024/02/05 10:19:21;;;;;;;8.40;2.87;;;10.20;99.90;;;;;;5034063;28;20857;-67
2024/02/05 10:21:49;;;;;;;7.53;3.93;;;10.30;99.90;;;;;;5033417;28;20754;-67
2024/02/05 10:24:17;;;;;;;8.80;4.60;;;10.30;99.90;;;;;;5041600;28;20794;-65
2024/02/05 10:26:47;;;;;;;3.00;2.17;;;10.30;99.90;;;;;;5042917;28;20432;-67
2024/02/05 10:29:14;;;;;;;5.90;2.60;;;10.40;99.90;;;;;;5053486;28;20428;-66
2024/02/05 10:31:58;;;;;;;9.43;3.40;;;10.30;99.90;;;;;;5053708;28;20468;-67
2024/02/05 10:34:26;;;;;;;7.40;2.80;;;10.30;99.90;;;;;;5053713;28;20437;-69
2024/02/05 10:37:03;;;;;;;5.17;2.03;;;10.40;99.90;;;;;;5055656;28;20470;-66
2024/02/05 10:39:30;;;;;;;6.27;3.30;;;10.40;99.90;;;;;;5044619;28;20428;-68
2024/02/05 10:42:00;;;;;;;2.93;1.87;;;10.40;99.90;;;;;;5034703;28;20518;-69
2024/02/05 10:44:27;;;;;;;5.30;2.00;;;10.40;99.90;;;;;;5048031;28;20452;-68
2024/02/05 10:46:54;;;;;;;2.63;1.90;;;10.40;99.90;;;;;;5046958;28;20433;-68
2024/02/05 10:49:21;;;;;;;6.40;2.90;;;10.40;99.90;;;;;;5048728;28;20433;-69
2024/02/05 10:51:52;;;;;;;4.37;2.60;;;10.40;99.90;;;;;;5037413;28;20482;-69
2024/02/05 10:54:21;;;;;;;12.07;3.63;;;10.40;99.90;;;;;;5046814;28;20468;-67
2024/02/05 10:56:52;;;;;;;5.60;2.60;;;10.40;99.90;;;;;;5040135;28;20830;-67
2024/02/05 10:59:25;;;;;;;5.57;2.60;;;10.30;99.90;;;;;;5033101;28;20913;-70
2024/02/05 11:01:59;;;;;;;10.10;2.70;;;10.30;99.90;;;;;;5034746;28;20971;-67
2024/02/05 11:04:30;;;;;;;6.20;3.17;;;10.30;99.90;;;;;;5042184;28;20439;-68
2024/02/05 11:07:02;;;;;;;8.13;3.30;;;10.30;99.90;;;;;;5034813;28;21049;-68
2024/02/05 11:09:30;;;;;;;7.57;3.57;;;10.30;99.90;;;;;;5051706;28;20432;-68
2024/02/05 11:12:01;;;;;;;5.50;2.10;;;10.40;99.90;;;;;;5052942;28;20495;-66
2024/02/05 11:14:33;;;;;;;5.80;2.93;;;10.30;99.90;;;;;;5041281;28;20433;-66
2024/02/05 11:17:03;;;;;;;4.60;2.70;;;10.30;99.90;;;;;;5033217;28;20480;-67
2024/02/05 11:19:32;;;;;;;12.70;3.73;;;10.20;99.90;;;;;;5046525;28;20463;-67
2024/02/05 11:22:01;;;;;;;6.10;2.20;;;10.20;99.90;;;;;;5053428;28;20852;-69
2024/02/05 11:24:29;;;;;;;12.80;3.33;;;10.20;99.90;;;;;;5045348;28;20843;-67
2024/02/05 11:27:06;;;;;;;9.33;3.40;;;10.20;99.90;;;;;;5043057;28;20455;-68
2024/02/05 11:29:35;;;;;;;5.60;2.90;;;10.10;99.90;;;;;;5040226;28;20467;-68
2024/02/05 11:32:09;;;;;;;6.50;2.87;;;10.10;99.90;;;;;;5051792;28;20581;-66
2024/02/05 11:34:37;;;;;;;5.00;2.30;;;10.10;99.90;;;;;;5040788;28;20435;-68
2024/02/05 11:37:08;;;;;;;13.03;2.97;;;10.10;99.90;;;;;;5051179;28;20563;-68
2024/02/05 11:39:37;;;;;;;14.30;3.27;;;10.20;99.90;;;;;;5047824;28;20486;-67
2024/02/05 11:42:08;;;;;;;134.20;36.83;;;10.20;99.90;;;;;;5035592;28;20540;-66
2024/02/05 11:44:39;;;;;;;96.67;25.20;;;10.50;99.90;;;;;;5035995;28;20470;-66
2024/02/05 11:47:06;;;;;;;353.33;94.53;;;10.80;99.90;;;;;;5038911;28;20437;-66
2024/02/05 11:49:34;;;;;;;9.60;4.60;;;11.20;99.90;;;;;;5040318;28;20428;-66
2024/02/05 11:52:01;;;;;;;14.63;5.90;;;11.30;99.90;;;;;;5033901;28;20594;-66
2024/02/05 11:54:31;;;;;;;8.27;5.10;;;11.00;99.90;;;;;;5037016;28;20461;-66
2024/02/05 11:56:59;;;;;;;4.20;2.60;;;10.70;99.90;;;;;;5041243;28;20470;-66
2024/02/05 11:59:32;;;;;;;9.40;3.30;;;10.50;99.90;;;;;;5050645;28;20438;-68
2024/02/05 12:02:01;;;;;;;8.77;3.47;;;10.40;99.90;;;;;;5036159;28;20460;-65
2024/02/05 12:04:28;;;;;;;5.20;3.10;;;10.30;99.90;;;;;;5051600;28;21112;-66
2024/02/05 12:06:56;;;;;;;7.57;3.17;;;10.30;99.90;;;;;;5050116;28;20481;-67
2024/02/05 12:09:28;;;;;;;8.20;3.57;;;10.20;99.90;;;;;;5051972;28;20468;-67
2024/02/05 12:11:55;;;;;;;3.23;2.60;;;10.10;99.90;;;;;;5043933;28;20513;-68
2024/02/05 12:14:25;;;;;;;8.03;3.00;;;10.10;99.90;;;;;;5047425;28;20436;-66
2024/02/05 12:16:52;;;;;;;12.67;4.97;;;10.10;99.90;;;;;;5041634;28;20471;-68
2024/02/05 12:19:40;;;;;;;9.83;3.50;;;10.10;99.90;;;;;;5054298;28;20439;-67
2024/02/05 12:22:09;;;;;;;9.93;3.63;;;10.10;99.90;;;;;;5065334;28;20463;-67
2024/02/05 12:24:42;;;;;;;12.10;4.10;;;10.10;99.90;;;;;;5056560;28;20463;-66
2024/02/05 12:27:09;;;;;;;6.40;2.90;;;10.10;99.90;;;;;;5056313;28;20491;-66
2024/02/05 12:29:37;;;;;;;10.57;4.00;;;10.10;99.90;;;;;;5065509;28;20516;-66
2024/02/05 12:32:08;;;;;;;22.40;4.87;;;10.10;99.90;;;;;;5064496;28;20472;-66
2024/02/05 12:34:36;;;;;;;7.10;3.80;;;10.10;99.90;;;;;;5062008;28;20504;-67
2024/02/05 12:37:05;;;;;;;17.33;4.47;;;10.10;99.90;;;;;;5036073;28;20623;-67
2024/02/05 12:39:32;;;;;;;6.60;3.20;;;10.20;99.90;;;;;;5040646;28;20524;-67
2024/02/05 12:41:59;;;;;;;10.47;3.33;;;10.20;99.90;;;;;;5046302;28;20491;-69
2024/02/05 12:44:27;;;;;;;14.30;3.43;;;10.20;99.90;;;;;;5035214;28;20431;-68
2024/02/05 12:46:54;;;;;;;11.27;3.60;;;10.20;99.90;;;;;;5048436;28;20444;-70
2024/02/05 12:49:22;;;;;;;8.50;3.23;;;10.30;99.90;;;;;;5036730;28;20438;-68
2024/02/05 12:51:53;;;;;;;10.57;3.10;;;10.30;99.90;;;;;;5051639;28;20482;-68
2024/02/05 12:54:23;;;;;;;5.40;2.93;;;10.30;99.90;;;;;;5049807;28;20439;-66
2024/02/05 12:56:57;;;;;;;9.30;3.70;;;10.30;99.90;;;;;;5040765;28;20475;-68
2024/02/05 12:59:24;;;;;;;5.73;2.70;;;10.40;99.90;;;;;;5049216;28;20429;-69
2024/02/05 13:01:55;;;;;;;7.83;2.90;;;10.40;99.90;;;;;;5040075;28;21005;-67